KTCM/TCM METAR and TAF weather

Enter ICAO airport designator
Station Type Date Time Source
KTCM METAR 2024/06/15 23:59 UTC NOAA

KTCM 152359Z AUTO 25004KT 10SM FEW002 SCT032 SCT039 BKN055 BKN070 15/07 A3012 RMK AO2 RAE59 SLP204 $


Station Type Date Time Source
KTCM Decoded METAR 2024/06/15 23:59 UTC NOAA

Tacoma / McChord Air Force Base, WA, United States (KTCM) 47-09N 122-29W 87M
Jun 15, 2024 - 07:59 PM EDT / 2024.06.15 2359 UTC
Wind: from the WSW (250 degrees) at 5 MPH (4 KT):0
Visibility: 10 mile(s):0
Sky conditions: mostly cloudy
Temperature: 59 F (15 C)
Dew Point: 44 F (7 C)
Relative Humidity: 58%
Pressure (altimeter): 30.12 in. Hg (1019 hPa)
ob: KTCM 152359Z AUTO 25004KT 10SM FEW002 SCT032 SCT039 BKN055 BKN070 15/07 A3012 RMK AO2 RAE59 SLP204
cycle: 0

Station Type Date Time Source
KTCM TAF 2024/06/15 19:29 UTC NOAA